sensor_id;sensor_type;location;lat;lon;timestamp;pressure;altitude;pressure_sealevel;temperature;humidity
27805;BME280;15183;51.350;11.102;2023-09-19T00:00:44;99183.59;;;22.97;56.14
27805;BME280;15183;51.350;11.102;2023-09-19T00:03:13;99178.03;;;22.93;56.39
27805;BME280;15183;51.350;11.102;2023-09-19T00:05:40;99190.69;;;23.02;55.99
27805;BME280;15183;51.350;11.102;2023-09-19T00:08:08;99209.41;;;23.07;56.21
27805;BME280;15183;51.350;11.102;2023-09-19T00:10:34;99195.97;;;22.98;56.58
27805;BME280;15183;51.350;11.102;2023-09-19T00:13:03;99208.03;;;23.01;56.02
27805;BME280;15183;51.350;11.102;2023-09-19T00:15:41;99197.75;;;22.94;56.50
27805;BME280;15183;51.350;11.102;2023-09-19T00:18:08;99173.81;;;22.75;56.13
27805;BME280;15183;51.350;11.102;2023-09-19T00:20:38;99198.25;;;22.87;56.12
27805;BME280;15183;51.350;11.102;2023-09-19T00:23:05;99196.66;;;22.86;56.16
27805;BME280;15183;51.350;11.102;2023-09-19T00:25:32;99202.97;;;22.99;55.99
27805;BME280;15183;51.350;11.102;2023-09-19T00:27:59;99131.16;;;22.50;56.14
27805;BME280;15183;51.350;11.102;2023-09-19T00:30:25;99168.88;;;22.77;56.10
27805;BME280;15183;51.350;11.102;2023-09-19T00:32:51;99169.47;;;22.82;56.00
27805;BME280;15183;51.350;11.102;2023-09-19T00:35:19;99202.78;;;23.04;55.99
27805;BME280;15183;51.350;11.102;2023-09-19T00:37:45;99159.69;;;22.69;56.36
27805;BME280;15183;51.350;11.102;2023-09-19T00:40:12;99201.69;;;22.96;56.49
27805;BME280;15183;51.350;11.102;2023-09-19T00:42:42;99170.31;;;22.74;56.47
27805;BME280;15183;51.350;11.102;2023-09-19T00:45:10;99163.34;;;22.64;56.48
27805;BME280;15183;51.350;11.102;2023-09-19T00:47:48;99197.63;;;22.81;56.58
27805;BME280;15183;51.350;11.102;2023-09-19T00:50:21;99193.03;;;22.73;56.82
27805;BME280;15183;51.350;11.102;2023-09-19T00:52:50;99204.00;;;22.77;56.35
27805;BME280;15183;51.350;11.102;2023-09-19T00:55:19;99196.38;;;22.79;56.50
27805;BME280;15183;51.350;11.102;2023-09-19T00:57:46;99198.44;;;22.73;56.07
27805;BME280;15183;51.350;11.102;2023-09-19T01:00:13;99195.13;;;22.67;56.36
27805;BME280;15183;51.350;11.102;2023-09-19T01:02:43;99183.25;;;22.51;56.78
27805;BME280;15183;51.350;11.102;2023-09-19T01:05:10;99215.75;;;22.72;56.57
27805;BME280;15183;51.350;11.102;2023-09-19T01:07:37;99198.34;;;22.52;56.28
27805;BME280;15183;51.350;11.102;2023-09-19T01:10:09;99211.03;;;22.60;56.87
27805;BME280;15183;51.350;11.102;2023-09-19T01:13:13;99212.31;;;22.54;56.19
27805;BME280;15183;51.350;11.102;2023-09-19T01:19:07;99203.25;;;22.41;56.63
27805;BME280;15183;51.350;11.102;2023-09-19T01:22:14;99229.94;;;22.51;56.40
27805;BME280;15183;51.350;11.102;2023-09-19T01:28:43;99220.56;;;22.31;56.71
27805;BME280;15183;51.350;11.102;2023-09-19T01:31:13;99247.25;;;22.41;56.70
27805;BME280;15183;51.350;11.102;2023-09-19T01:34:01;99245.66;;;22.40;56.34
27805;BME280;15183;51.350;11.102;2023-09-19T01:36:34;99239.63;;;22.35;56.39
27805;BME280;15183;51.350;11.102;2023-09-19T01:39:11;99219.50;;;22.23;56.48
27805;BME280;15183;51.350;11.102;2023-09-19T01:41:59;99247.91;;;22.38;56.92
27805;BME280;15183;51.350;11.102;2023-09-19T01:44:44;99234.72;;;22.28;56.72
27805;BME280;15183;51.350;11.102;2023-09-19T01:47:35;99240.91;;;22.29;56.27
27805;BME280;15183;51.350;11.102;2023-09-19T01:50:12;99252.03;;;22.27;56.80
27805;BME280;15183;51.350;11.102;2023-09-19T01:53:04;99211.56;;;22.01;56.33
27805;BME280;15183;51.350;11.102;2023-09-19T01:55:40;99248.06;;;22.16;56.78
27805;BME280;15183;51.350;11.102;2023-09-19T02:00:55;99249.34;;;22.09;56.73
27805;BME280;15183;51.350;11.102;2023-09-19T02:03:22;99204.59;;;21.82;56.76
27805;BME280;15183;51.350;11.102;2023-09-19T02:05:51;99217.44;;;21.76;56.62
27805;BME280;15183;51.350;11.102;2023-09-19T02:08:22;99214.72;;;21.76;56.81
27805;BME280;15183;51.350;11.102;2023-09-19T02:10:52;99249.50;;;21.95;56.96
27805;BME280;15183;51.350;11.102;2023-09-19T02:13:20;99253.47;;;21.98;56.45
27805;BME280;15183;51.350;11.102;2023-09-19T02:15:47;99265.34;;;21.97;56.92
27805;BME280;15183;51.350;11.102;2023-09-19T02:18:14;99274.06;;;21.94;56.74
27805;BME280;15183;51.350;11.102;2023-09-19T02:20:40;99284.22;;;21.97;56.87
27805;BME280;15183;51.350;11.102;2023-09-19T02:23:08;99292.81;;;21.99;57.11
27805;BME280;15183;51.350;11.102;2023-09-19T02:25:34;99280.25;;;21.86;56.67
27805;BME280;15183;51.350;11.102;2023-09-19T02:28:05;99298.97;;;21.91;57.16
27805;BME280;15183;51.350;11.102;2023-09-19T02:30:32;99282.59;;;21.69;57.07
27805;BME280;15183;51.350;11.102;2023-09-19T02:32:59;99243.00;;;21.38;57.35
27805;BME280;15183;51.350;11.102;2023-09-19T02:35:28;99301.31;;;21.75;56.91
27805;BME280;15183;51.350;11.102;2023-09-19T02:37:59;99304.50;;;21.77;56.90
27805;BME280;15183;51.350;11.102;2023-09-19T02:40:25;99234.44;;;21.28;57.04
27805;BME280;15183;51.350;11.102;2023-09-19T02:42:56;99307.81;;;21.74;56.86
27805;BME280;15183;51.350;11.102;2023-09-19T02:45:22;99278.88;;;21.57;56.86
27805;BME280;15183;51.350;11.102;2023-09-19T02:47:49;99285.06;;;21.48;57.17
27805;BME280;15183;51.350;11.102;2023-09-19T02:50:16;99315.91;;;21.65;57.00
27805;BME280;15183;51.350;11.102;2023-09-19T02:52:45;99297.91;;;21.51;57.25
27805;BME280;15183;51.350;11.102;2023-09-19T02:55:13;99315.53;;;21.58;57.05
27805;BME280;15183;51.350;11.102;2023-09-19T02:57:48;99288.22;;;21.42;57.09
27805;BME280;15183;51.350;11.102;2023-09-19T03:00:17;99306.94;;;21.47;57.07
27805;BME280;15183;51.350;11.102;2023-09-19T03:02:53;99289.25;;;21.23;57.22
27805;BME280;15183;51.350;11.102;2023-09-19T03:05:21;99312.28;;;21.38;57.28
27805;BME280;15183;51.350;11.102;2023-09-19T03:07:49;99321.34;;;21.42;57.62
27805;BME280;15183;51.350;11.102;2023-09-19T03:10:20;99313.34;;;21.28;57.50
27805;BME280;15183;51.350;11.102;2023-09-19T03:12:47;99288.69;;;21.03;57.48
27805;BME280;15183;51.350;11.102;2023-09-19T03:15:15;99239.19;;;20.67;57.55
27805;BME280;15183;51.350;11.102;2023-09-19T03:17:46;99320.41;;;21.06;58.04
27805;BME280;15183;51.350;11.102;2023-09-19T03:20:14;99327.53;;;21.11;58.02
27805;BME280;15183;51.350;11.102;2023-09-19T03:22:44;99322.78;;;21.08;58.02
27805;BME280;15183;51.350;11.102;2023-09-19T03:25:10;99324.97;;;21.06;57.80
27805;BME280;15183;51.350;11.102;2023-09-19T03:27:39;99273.41;;;20.67;57.80
27805;BME280;15183;51.350;11.102;2023-09-19T03:30:06;99360.84;;;21.15;57.77
27805;BME280;15183;51.350;11.102;2023-09-19T03:32:35;99368.88;;;21.06;57.77
27805;BME280;15183;51.350;11.102;2023-09-19T03:35:03;99371.09;;;21.04;58.30
27805;BME280;15183;51.350;11.102;2023-09-19T03:37:31;99340.47;;;20.77;57.98
27805;BME280;15183;51.350;11.102;2023-09-19T03:39:59;99389.41;;;20.93;57.95
27805;BME280;15183;51.350;11.102;2023-09-19T03:42:25;99376.66;;;20.85;58.51
27805;BME280;15183;51.350;11.102;2023-09-19T03:44:53;99376.75;;;20.80;58.46
27805;BME280;15183;51.350;11.102;2023-09-19T03:47:21;99375.75;;;20.76;58.52
27805;BME280;15183;51.350;11.102;2023-09-19T03:49:47;99380.16;;;20.72;58.56
27805;BME280;15183;51.350;11.102;2023-09-19T03:52:14;99373.84;;;20.53;58.65
27805;BME280;15183;51.350;11.102;2023-09-19T03:54:42;99338.44;;;20.23;58.61
27805;BME280;15183;51.350;11.102;2023-09-19T03:57:09;99390.44;;;20.47;58.87
27805;BME280;15183;51.350;11.102;2023-09-19T03:59:36;99371.53;;;20.24;58.43
27805;BME280;15183;51.350;11.102;2023-09-19T04:02:02;99389.06;;;20.21;58.97
27805;BME280;15183;51.350;11.102;2023-09-19T04:04:29;99383.69;;;20.21;58.84
27805;BME280;15183;51.350;11.102;2023-09-19T04:06:55;99400.03;;;20.25;59.29
27805;BME280;15183;51.350;11.102;2023-09-19T04:09:22;99390.25;;;20.15;59.17
27805;BME280;15183;51.350;11.102;2023-09-19T04:11:48;99380.91;;;20.13;59.06
27805;BME280;15183;51.350;11.102;2023-09-19T04:14:16;99392.34;;;20.18;58.87
27805;BME280;15183;51.350;11.102;2023-09-19T04:16:42;99350.03;;;19.96;59.03
27805;BME280;15183;51.350;11.102;2023-09-19T04:19:09;99371.75;;;20.00;59.04
27805;BME280;15183;51.350;11.102;2023-09-19T04:21:35;99357.50;;;19.99;58.71
27805;BME280;15183;51.350;11.102;2023-09-19T04:24:02;99369.97;;;19.95;59.19
27805;BME280;15183;51.350;11.102;2023-09-19T04:26:28;99398.53;;;20.19;58.70
27805;BME280;15183;51.350;11.102;2023-09-19T04:28:55;99420.44;;;20.26;58.81
27805;BME280;15183;51.350;11.102;2023-09-19T04:31:22;99408.59;;;20.13;58.45
27805;BME280;15183;51.350;11.102;2023-09-19T04:33:48;99383.28;;;19.86;58.73
27805;BME280;15183;51.350;11.102;2023-09-19T04:36:15;99365.25;;;19.87;58.89
27805;BME280;15183;51.350;11.102;2023-09-19T04:38:41;99379.44;;;19.92;58.30
27805;BME280;15183;51.350;11.102;2023-09-19T04:41:08;99376.44;;;19.94;58.36
27805;BME280;15183;51.350;11.102;2023-09-19T04:43:35;99431.69;;;20.28;57.96
27805;BME280;15183;51.350;11.102;2023-09-19T04:46:01;99418.16;;;20.19;58.19
27805;BME280;15183;51.350;11.102;2023-09-19T04:48:27;99377.53;;;19.93;57.77
27805;BME280;15183;51.350;11.102;2023-09-19T04:50:55;99419.94;;;20.24;57.34
27805;BME280;15183;51.350;11.102;2023-09-19T04:53:22;99416.16;;;20.25;57.53
27805;BME280;15183;51.350;11.102;2023-09-19T04:55:52;99429.09;;;20.37;57.54
27805;BME280;15183;51.350;11.102;2023-09-19T04:58:23;99422.41;;;20.34;57.23
27805;BME280;15183;51.350;11.102;2023-09-19T05:00:49;99441.84;;;20.45;56.97
27805;BME280;15183;51.350;11.102;2023-09-19T05:03:17;99434.66;;;20.41;56.95
27805;BME280;15183;51.350;11.102;2023-09-19T05:05:44;99448.53;;;20.48;56.73
27805;BME280;15183;51.350;11.102;2023-09-19T05:08:11;99430.09;;;20.41;57.03
27805;BME280;15183;51.350;11.102;2023-09-19T05:10:37;99384.78;;;20.06;56.49
27805;BME280;15183;51.350;11.102;2023-09-19T05:13:04;99425.13;;;20.34;56.87
27805;BME280;15183;51.350;11.102;2023-09-19T05:15:31;99469.72;;;20.63;57.03
27805;BME280;15183;51.350;11.102;2023-09-19T05:17:57;99444.63;;;20.54;56.31
27805;BME280;15183;51.350;11.102;2023-09-19T05:20:24;99476.59;;;20.70;56.42
27805;BME280;15183;51.350;11.102;2023-09-19T05:23:02;99478.69;;;20.73;56.33
27805;BME280;15183;51.350;11.102;2023-09-19T05:25:32;99487.06;;;20.71;57.00
27805;BME280;15183;51.350;11.102;2023-09-19T05:27:59;99479.56;;;20.82;56.75
27805;BME280;15183;51.350;11.102;2023-09-19T05:30:28;99454.06;;;20.79;56.33
27805;BME280;15183;51.350;11.102;2023-09-19T05:32:55;99476.94;;;21.05;56.43
27805;BME280;15183;51.350;11.102;2023-09-19T05:35:22;99476.56;;;21.20;56.41
27805;BME280;15183;51.350;11.102;2023-09-19T05:37:52;99488.31;;;21.47;56.60
27805;BME280;15183;51.350;11.102;2023-09-19T05:40:19;99454.25;;;21.51;56.02
27805;BME280;15183;51.350;11.102;2023-09-19T05:42:46;99450.09;;;21.68;55.88
27805;BME280;15183;51.350;11.102;2023-09-19T05:45:14;99377.94;;;21.42;55.56
27805;BME280;15183;51.350;11.102;2023-09-19T05:47:40;99452.63;;;22.05;55.67
27805;BME280;15183;51.350;11.102;2023-09-19T05:50:12;99489.09;;;22.43;55.05
27805;BME280;15183;51.350;11.102;2023-09-19T05:52:38;99490.75;;;22.61;54.76
27805;BME280;15183;51.350;11.102;2023-09-19T05:55:05;99475.81;;;22.64;54.90
27805;BME280;15183;51.350;11.102;2023-09-19T05:57:34;99481.09;;;22.78;54.13
27805;BME280;15183;51.350;11.102;2023-09-19T06:00:01;99490.94;;;22.82;53.13
27805;BME280;15183;51.350;11.102;2023-09-19T06:02:27;99473.13;;;22.81;52.88
27805;BME280;15183;51.350;11.102;2023-09-19T06:04:56;99468.34;;;22.69;52.92
27805;BME280;15183;51.350;11.102;2023-09-19T06:07:23;99460.53;;;22.50;52.65
27805;BME280;15183;51.350;11.102;2023-09-19T06:09:52;99470.19;;;22.43;51.79
27805;BME280;15183;51.350;11.102;2023-09-19T06:12:22;99489.47;;;22.50;52.13
27805;BME280;15183;51.350;11.102;2023-09-19T06:14:48;99440.59;;;22.20;52.28
27805;BME280;15183;51.350;11.102;2023-09-19T06:17:15;99464.13;;;22.28;51.58
27805;BME280;15183;51.350;11.102;2023-09-19T06:19:41;99472.06;;;22.24;51.96
27805;BME280;15183;51.350;11.102;2023-09-19T06:22:16;99482.84;;;22.24;51.73
27805;BME280;15183;51.350;11.102;2023-09-19T06:24:45;99493.03;;;22.27;51.67
27805;BME280;15183;51.350;11.102;2023-09-19T06:27:13;99484.72;;;22.15;51.51
27805;BME280;15183;51.350;11.102;2023-09-19T06:29:39;99436.28;;;21.69;51.85
27805;BME280;15183;51.350;11.102;2023-09-19T06:32:09;99477.47;;;21.84;51.29
27805;BME280;15183;51.350;11.102;2023-09-19T06:34:37;99469.84;;;21.86;51.73
27805;BME280;15183;51.350;11.102;2023-09-19T06:37:05;99448.28;;;21.63;51.44
27805;BME280;15183;51.350;11.102;2023-09-19T06:39:32;99447.88;;;21.70;51.76
27805;BME280;15183;51.350;11.102;2023-09-19T06:41:59;99475.13;;;21.91;50.90
27805;BME280;15183;51.350;11.102;2023-09-19T06:44:27;99447.13;;;21.78;51.38
27805;BME280;15183;51.350;11.102;2023-09-19T06:46:55;99460.66;;;21.87;50.67
27805;BME280;15183;51.350;11.102;2023-09-19T06:49:22;99492.03;;;22.15;50.88
27805;BME280;15183;51.350;11.102;2023-09-19T06:51:48;99529.56;;;22.34;50.70
27805;BME280;15183;51.350;11.102;2023-09-19T06:54:15;99532.66;;;22.50;51.14
27805;BME280;15183;51.350;11.102;2023-09-19T06:56:44;99533.00;;;22.57;50.97
27805;BME280;15183;51.350;11.102;2023-09-19T06:59:10;99531.09;;;22.58;50.38
27805;BME280;15183;51.350;11.102;2023-09-19T07:01:40;99513.28;;;22.48;50.51
27805;BME280;15183;51.350;11.102;2023-09-19T07:04:07;99545.28;;;22.81;50.23
27805;BME280;15183;51.350;11.102;2023-09-19T07:06:34;99566.28;;;22.93;49.99
27805;BME280;15183;51.350;11.102;2023-09-19T07:09:01;99560.06;;;22.83;50.28
27805;BME280;15183;51.350;11.102;2023-09-19T07:11:27;99587.41;;;22.99;50.31
27805;BME280;15183;51.350;11.102;2023-09-19T07:13:53;99569.44;;;22.86;50.00
27805;BME280;15183;51.350;11.102;2023-09-19T07:16:20;99571.19;;;22.82;49.94
27805;BME280;15183;51.350;11.102;2023-09-19T07:18:56;99594.75;;;22.99;50.23
27805;BME280;15183;51.350;11.102;2023-09-19T07:21:23;99607.28;;;23.04;49.69
27805;BME280;15183;51.350;11.102;2023-09-19T07:23:50;99594.09;;;22.93;50.19
27805;BME280;15183;51.350;11.102;2023-09-19T07:26:16;99604.59;;;22.95;50.05
27805;BME280;15183;51.350;11.102;2023-09-19T07:28:43;99607.47;;;23.07;49.58
27805;BME280;15183;51.350;11.102;2023-09-19T07:31:09;99592.38;;;23.06;50.12
27805;BME280;15183;51.350;11.102;2023-09-19T07:33:36;99584.91;;;23.03;49.68
27805;BME280;15183;51.350;11.102;2023-09-19T07:36:03;99589.66;;;23.24;49.48
27805;BME280;15183;51.350;11.102;2023-09-19T07:38:29;99607.53;;;23.34;49.29
27805;BME280;15183;51.350;11.102;2023-09-19T07:41:02;99618.19;;;23.48;49.34
27805;BME280;15183;51.350;11.102;2023-09-19T07:43:29;99636.00;;;23.58;49.40
27805;BME280;15183;51.350;11.102;2023-09-19T07:45:55;99613.75;;;23.61;49.28
27805;BME280;15183;51.350;11.102;2023-09-19T07:48:22;99593.69;;;23.62;49.32
27805;BME280;15183;51.350;11.102;2023-09-19T07:50:50;99588.25;;;23.79;49.35
27805;BME280;15183;51.350;11.102;2023-09-19T07:53:17;99613.06;;;24.08;48.84
27805;BME280;15183;51.350;11.102;2023-09-19T07:55:44;99615.56;;;24.22;48.57
27805;BME280;15183;51.350;11.102;2023-09-19T07:58:14;99597.44;;;24.13;48.54
27805;BME280;15183;51.350;11.102;2023-09-19T08:00:42;99617.47;;;24.30;48.06
27805;BME280;15183;51.350;11.102;2023-09-19T08:03:08;99531.13;;;23.81;47.47
27805;BME280;15183;51.350;11.102;2023-09-19T08:05:35;99609.03;;;24.23;46.50
27805;BME280;15183;51.350;11.102;2023-09-19T08:08:03;99628.44;;;24.34;46.63
27805;BME280;15183;51.350;11.102;2023-09-19T08:10:29;99603.00;;;24.26;46.10
27805;BME280;15183;51.350;11.102;2023-09-19T08:13:01;99586.00;;;24.08;44.96
27805;BME280;15183;51.350;11.102;2023-09-19T08:15:28;99614.16;;;24.16;45.41
27805;BME280;15183;51.350;11.102;2023-09-19T08:17:55;99617.03;;;24.10;45.24
27805;BME280;15183;51.350;11.102;2023-09-19T08:20:21;99621.31;;;24.11;44.56
27805;BME280;15183;51.350;11.102;2023-09-19T08:22:52;99625.31;;;24.05;44.70
27805;BME280;15183;51.350;11.102;2023-09-19T08:25:22;99632.31;;;24.06;44.36
27805;BME280;15183;51.350;11.102;2023-09-19T08:27:49;99632.16;;;24.11;43.85
27805;BME280;15183;51.350;11.102;2023-09-19T08:30:19;99590.47;;;23.77;43.46
27805;BME280;15183;51.350;11.102;2023-09-19T08:32:50;99648.56;;;24.06;43.73
27805;BME280;15183;51.350;11.102;2023-09-19T08:35:17;99633.75;;;23.95;43.19
27805;BME280;15183;51.350;11.102;2023-09-19T08:37:43;99614.81;;;23.86;43.39
27805;BME280;15183;51.350;11.102;2023-09-19T08:40:12;99625.97;;;24.02;43.29
27805;BME280;15183;51.350;11.102;2023-09-19T08:42:53;99625.16;;;23.93;43.17
27805;BME280;15183;51.350;11.102;2023-09-19T08:45:21;99644.59;;;24.04;42.67
27805;BME280;15183;51.350;11.102;2023-09-19T08:48:24;99630.88;;;24.00;42.70
27805;BME280;15183;51.350;11.102;2023-09-19T08:51:07;99627.38;;;23.99;43.09
27805;BME280;15183;51.350;11.102;2023-09-19T08:54:08;99665.75;;;24.19;42.98
27805;BME280;15183;51.350;11.102;2023-09-19T08:56:41;99663.03;;;24.19;42.17
27805;BME280;15183;51.350;11.102;2023-09-19T08:59:09;99646.50;;;24.12;41.71
27805;BME280;15183;51.350;11.102;2023-09-19T09:01:36;99655.41;;;24.12;42.19
27805;BME280;15183;51.350;11.102;2023-09-19T09:04:06;99658.25;;;24.25;41.51
27805;BME280;15183;51.350;11.102;2023-09-19T09:06:36;99645.88;;;24.06;41.45
27805;BME280;15183;51.350;11.102;2023-09-19T09:09:03;99669.41;;;24.14;41.43
27805;BME280;15183;51.350;11.102;2023-09-19T09:11:33;99646.31;;;23.99;41.15
27805;BME280;15183;51.350;11.102;2023-09-19T09:13:59;99651.28;;;24.06;41.37
27805;BME280;15183;51.350;11.102;2023-09-19T09:16:26;99621.81;;;23.87;41.34
27805;BME280;15183;51.350;11.102;2023-09-19T09:18:52;99641.72;;;24.00;41.39
27805;BME280;15183;51.350;11.102;2023-09-19T09:21:29;99672.88;;;24.24;41.06
27805;BME280;15183;51.350;11.102;2023-09-19T09:23:56;99693.28;;;24.30;41.54
27805;BME280;15183;51.350;11.102;2023-09-19T09:26:42;99686.28;;;24.29;41.50
27805;BME280;15183;51.350;11.102;2023-09-19T09:29:13;99687.06;;;24.30;41.01
27805;BME280;15183;51.350;11.102;2023-09-19T09:31:39;99680.06;;;24.28;40.75
27805;BME280;15183;51.350;11.102;2023-09-19T09:34:07;99630.25;;;23.85;41.09
27805;BME280;15183;51.350;11.102;2023-09-19T09:36:39;99675.00;;;24.09;40.72
27805;BME280;15183;51.350;11.102;2023-09-19T09:39:10;99678.50;;;24.10;40.91
27805;BME280;15183;51.350;11.102;2023-09-19T09:41:45;99691.22;;;24.27;41.00
27805;BME280;15183;51.350;11.102;2023-09-19T09:44:15;99680.41;;;24.27;41.31
27805;BME280;15183;51.350;11.102;2023-09-19T09:46:48;99680.34;;;24.36;40.46
27805;BME280;15183;51.350;11.102;2023-09-19T09:49:41;99678.91;;;24.38;40.97
27805;BME280;15183;51.350;11.102;2023-09-19T09:52:20;99674.91;;;24.45;40.87
27805;BME280;15183;51.350;11.102;2023-09-19T09:55:01;99652.19;;;24.28;40.54
27805;BME280;15183;51.350;11.102;2023-09-19T09:57:31;99655.50;;;24.42;40.03
27805;BME280;15183;51.350;11.102;2023-09-19T10:00:00;99632.03;;;24.08;40.11
27805;BME280;15183;51.350;11.102;2023-09-19T10:02:39;99689.41;;;24.49;40.88
27805;BME280;15183;51.350;11.102;2023-09-19T10:05:13;99701.00;;;24.58;40.32
27805;BME280;15183;51.350;11.102;2023-09-19T10:07:57;99683.03;;;24.53;40.44
27805;BME280;15183;51.350;11.102;2023-09-19T10:10:39;99659.59;;;24.49;40.04
27805;BME280;15183;51.350;11.102;2023-09-19T10:13:10;99694.63;;;24.63;40.15
27805;BME280;15183;51.350;11.102;2023-09-19T10:15:50;99682.69;;;24.55;40.00
27805;BME280;15183;51.350;11.102;2023-09-19T10:18:26;99682.81;;;24.67;39.92
27805;BME280;15183;51.350;11.102;2023-09-19T10:20:54;99666.38;;;24.73;40.02
27805;BME280;15183;51.350;11.102;2023-09-19T10:23:22;99694.69;;;24.93;40.00
27805;BME280;15183;51.350;11.102;2023-09-19T10:25:50;99676.69;;;24.88;39.41
27805;BME280;15183;51.350;11.102;2023-09-19T10:28:22;99669.38;;;24.89;39.62
27805;BME280;15183;51.350;11.102;2023-09-19T10:30:51;99639.28;;;24.73;39.34
27805;BME280;15183;51.350;11.102;2023-09-19T10:33:21;99695.22;;;25.16;39.66
27805;BME280;15183;51.350;11.102;2023-09-19T10:35:50;99633.97;;;24.85;39.38
27805;BME280;15183;51.350;11.102;2023-09-19T10:38:26;99626.13;;;24.92;39.28
27805;BME280;15183;51.350;11.102;2023-09-19T10:40:55;99633.28;;;24.97;38.73
27805;BME280;15183;51.350;11.102;2023-09-19T10:43:31;99608.34;;;24.82;38.85
27805;BME280;15183;51.350;11.102;2023-09-19T10:46:03;99675.44;;;25.37;38.64
27805;BME280;15183;51.350;11.102;2023-09-19T10:48:36;99632.13;;;25.07;38.81
27805;BME280;15183;51.350;11.102;2023-09-19T10:51:09;99690.72;;;25.50;38.69
27805;BME280;15183;51.350;11.102;2023-09-19T10:54:01;99690.25;;;25.48;38.39
27805;BME280;15183;51.350;11.102;2023-09-19T10:56:37;99657.66;;;25.27;38.28
27805;BME280;15183;51.350;11.102;2023-09-19T10:59:20;99675.00;;;25.35;38.73
27805;BME280;15183;51.350;11.102;2023-09-19T11:01:55;99687.72;;;25.43;38.37
27805;BME280;15183;51.350;11.102;2023-09-19T11:04:30;99637.81;;;25.14;38.42
27805;BME280;15183;51.350;11.102;2023-09-19T11:09:51;99688.47;;;25.52;38.71
27805;BME280;15183;51.350;11.102;2023-09-19T11:14:59;99661.53;;;25.47;38.21
27805;BME280;15183;51.350;11.102;2023-09-19T11:17:37;99696.09;;;25.80;38.07
27805;BME280;15183;51.350;11.102;2023-09-19T11:30:48;99673.50;;;25.89;37.04
27805;BME280;15183;51.350;11.102;2023-09-19T11:33:28;99648.53;;;25.74;36.89
27805;BME280;15183;51.350;11.102;2023-09-19T11:36:14;99677.13;;;25.93;37.10
27805;BME280;15183;51.350;11.102;2023-09-19T11:49:31;99641.06;;;25.71;36.90
27805;BME280;15183;51.350;11.102;2023-09-19T11:52:00;99644.91;;;25.70;36.76
27805;BME280;15183;51.350;11.102;2023-09-19T11:54:27;99656.22;;;25.72;36.81
27805;BME280;15183;51.350;11.102;2023-09-19T11:56:59;99585.88;;;25.24;36.99
27805;BME280;15183;51.350;11.102;2023-09-19T11:59:30;99650.69;;;25.68;36.78
27805;BME280;15183;51.350;11.102;2023-09-19T12:01:58;99643.25;;;25.78;36.94
27805;BME280;15183;51.350;11.102;2023-09-19T12:04:37;99666.19;;;26.01;36.20
27805;BME280;15183;51.350;11.102;2023-09-19T12:07:12;99647.66;;;26.04;36.48
27805;BME280;15183;51.350;11.102;2023-09-19T12:09:45;99634.31;;;26.11;36.55
27805;BME280;15183;51.350;11.102;2023-09-19T12:12:27;99656.91;;;26.24;35.91
27805;BME280;15183;51.350;11.102;2023-09-19T12:14:55;99636.75;;;26.25;36.52
27805;BME280;15183;51.350;11.102;2023-09-19T12:17:38;99652.59;;;26.35;36.42
27805;BME280;15183;51.350;11.102;2023-09-19T12:20:09;99653.88;;;26.38;36.03
27805;BME280;15183;51.350;11.102;2023-09-19T12:22:44;99624.75;;;26.26;35.49
27805;BME280;15183;51.350;11.102;2023-09-19T12:25:11;99647.09;;;26.44;35.45
27805;BME280;15183;51.350;11.102;2023-09-19T12:30:11;99642.31;;;26.41;35.63
27805;BME280;15183;51.350;11.102;2023-09-19T12:32:40;99659.09;;;26.43;35.36
27805;BME280;15183;51.350;11.102;2023-09-19T12:35:08;99650.81;;;26.39;35.46
27805;BME280;15183;51.350;11.102;2023-09-19T12:37:43;99629.50;;;26.29;35.28
27805;BME280;15183;51.350;11.102;2023-09-19T12:40:14;99659.53;;;26.57;35.43
27805;BME280;15183;51.350;11.102;2023-09-19T12:42:44;99648.66;;;26.70;35.30
27805;BME280;15183;51.350;11.102;2023-09-19T12:45:11;99630.00;;;26.56;35.42
27805;BME280;15183;51.350;11.102;2023-09-19T12:48:26;99665.34;;;26.68;35.16
27805;BME280;15183;51.350;11.102;2023-09-19T12:51:10;99645.28;;;26.61;35.28
27805;BME280;15183;51.350;11.102;2023-09-19T12:53:44;99649.47;;;26.70;34.90
27805;BME280;15183;51.350;11.102;2023-09-19T12:56:13;99593.06;;;26.30;35.00
27805;BME280;15183;51.350;11.102;2023-09-19T12:58:52;99657.06;;;26.77;34.87
27805;BME280;15183;51.350;11.102;2023-09-19T13:01:23;99612.56;;;26.57;34.85
27805;BME280;15183;51.350;11.102;2023-09-19T13:04:15;99663.09;;;26.95;34.57
27805;BME280;15183;51.350;11.102;2023-09-19T13:06:50;99646.66;;;26.92;34.65
27805;BME280;15183;51.350;11.102;2023-09-19T13:09:18;99648.47;;;27.00;34.03
27805;BME280;15183;51.350;11.102;2023-09-19T13:11:47;99634.53;;;26.89;34.28
27805;BME280;15183;51.350;11.102;2023-09-19T13:14:20;99623.19;;;26.75;33.97
27805;BME280;15183;51.350;11.102;2023-09-19T13:17:07;99623.88;;;26.71;34.45
27805;BME280;15183;51.350;11.102;2023-09-19T13:19:48;99629.53;;;26.79;34.68
27805;BME280;15183;51.350;11.102;2023-09-19T13:22:44;99635.09;;;26.82;35.09
27805;BME280;15183;51.350;11.102;2023-09-19T13:25:16;99609.97;;;26.73;34.17
27805;BME280;15183;51.350;11.102;2023-09-19T13:27:52;99641.09;;;26.88;34.57
27805;BME280;15183;51.350;11.102;2023-09-19T13:30:23;99622.63;;;26.69;34.86
27805;BME280;15183;51.350;11.102;2023-09-19T13:32:52;99582.56;;;26.41;34.40
27805;BME280;15183;51.350;11.102;2023-09-19T13:35:20;99622.06;;;26.51;34.55
27805;BME280;15183;51.350;11.102;2023-09-19T13:37:47;99648.22;;;26.55;34.42
27805;BME280;15183;51.350;11.102;2023-09-19T13:40:15;99634.28;;;26.32;34.35
27805;BME280;15183;51.350;11.102;2023-09-19T13:42:43;99636.53;;;26.30;34.54
27805;BME280;15183;51.350;11.102;2023-09-19T13:45:09;99633.00;;;26.17;34.58
27805;BME280;15183;51.350;11.102;2023-09-19T13:47:41;99647.25;;;26.26;34.45